Mary's Harbour, Canada
Current Conditions -  °F | °C
As of 5:00 AM on Friday 24 Oct 2014 (Local Time) from CYMH Reporting Station
Clear Clear  
Wind Chill: 36°   Ceiling: Unl
Heat Index: 36°   Visibility: 9mi
Dew Point: 25°   Wind: 2mph
Humidity: 65%   Direction: NA
Pressure: 30.1"   Gusts: NA
Location:  52.31°N, 55.84°W
Report Text: CYMH 240800Z AUTO VRB02KT 9SM CLR 02/M04 A3010 RMK SLP192
Loading
Personal Weather Stations






























Interactive Weather Map
Tropical Storm Tracking
New forecast layout! Learn more

10-Day Weather Forecast

Advertisements
Track Severe Weather on mobile